Bluefields, Nicaragua

3:46 PM CST on September 02, 2014 (GMT -0600)
Bluefields | Change Station
CLOSE
Current Station
Airport
Location: Bluefields,
Elevation: 16 ft
Nearby Weather Stations

Elev 16 ft 11.99 °N, 83.77 °W | Updated 46 minutes ago

Rain
Rain
84 °F
Feels Like 96 °F
N
9
Wind Variable Wind from NE

Today
High -- | Low -- °F
--% Chance of Precip.
Yesterday
High -- | Low -- °F
Precip. -- in
5:24 AM 5:44 PM
First Quarter, 55% visible
Pressure 29.80 in
Visibility 4.3 miles
Clouds Mostly Cloudy 1700 ft
Heat Index 96 °F
Dew Point 79 °F
Humidity 84%
Rainfall 0.00 in
Snow Depth Not available.
UV 4 out of 12
Pollen Not available.
Air Quality Not available.
Flu Activity Not available.
METAR MNBL 022100Z 05008KT 7000 RA BKN017 29/26 Q1009 RA/S/SW/W

More Conditions Fewer Conditions

Pressure 29.80 in
Visibility 4.3 miles
Clouds Mostly Cloudy 1700 ft
Heat Index 96 °F
Dew Point 79 °F
Humidity 84%
Rainfall 0.00 in
Snow Depth Not available.
UV 4 out of 12
Pollen Not available.
Air Quality Not available.
Flu Activity Not available.
METAR MNBL 022100Z 05008KT 7000 RA BKN017 29/26 Q1009 RA/S/SW/W

More Conditions Fewer Conditions

10-Day Weather Forecast

Almanac

Astronomy

Sep. 02, 2014 Rise Set
Actual Time 5:24 AM CST 5:44 PM CST
Civil Twilight 5:03 AM CST 6:05 PM CST
Nautical Twilight 4:38 AM CST 6:30 PM CST
Astronomical Twilight 4:13 AM CST 6:55 PM CST
Moon 11:56 AM CST 11:49 PM CST
Length of Visible Light 13h 02m
Length of Day
12h 19m
Tomorrow will be 0m 38s shorter.
First Quarter, 55% of the Moon is Illuminated
Today
First Quarter
Sep 8
Full
Sep 15
Last Quarter
Sep 24
New
Oct 1
First Quarter

Today's Extremes

Country Highs Country Lows

Community

WunderPhotos

Upload Photos

1,749,782 photos uploaded!

Nearby

Snow Depth

Not available.

Earthquake Activity

City Distance Mag. Time & Date
No recent earthquake activity has been reported nearby.
Minimum magnitude displayed is 2.5.

Coastal Water Temperatures

Place Temperature
No Stations Reporting

Nearby Weather Stations